Time;durP1;ratioP1;P1;durP2;ratioP2;P2;SDS_P1;SDS_P2;PMS_P1;PMS_P2;Temp;Humidity;BMP_temperature;BMP_pressure;BME280_temperature;BME280_humidity;BME280_pressure;Samples;Min_cycle;Max_cycle;Signal;HPM_P1;HPM_P2
2021/04/25 00:04:43;;;;;;;20.73;7.78;;;13.60;45.10;;;;;;9865180;29;20491;-81
2021/04/25 00:09:37;;;;;;;23.00;7.60;;;14.10;45.50;;;;;;9848760;29;20067;-82
2021/04/25 00:14:31;;;;;;;18.50;8.10;;;14.80;45.10;;;;;;9865101;29;20513;-80
2021/04/25 00:19:25;;;;;;;22.60;8.50;;;14.60;45.10;;;;;;9865563;29;20411;-82
2021/04/25 00:24:19;;;;;;;22.30;8.45;;;13.10;45.00;;;;;;9848857;29;20051;-81
2021/04/25 00:29:14;;;;;;;21.92;8.23;;;14.20;46.70;;;;;;9864355;29;20051;-77
2021/04/25 00:34:08;;;;;;;23.30;8.93;;;14.80;47.30;;;;;;9863192;29;20083;-79
2021/04/25 00:39:03;;;;;;;21.58;9.23;;;12.10;46.10;;;;;;9864049;29;20093;-79
2021/04/25 00:43:57;;;;;;;25.33;9.68;;;12.60;46.60;;;;;;9863505;29;20086;-80
2021/04/25 00:48:52;;;;;;;24.30;9.90;;;15.00;47.70;;;;;;9819019;29;20055;-77
2021/04/25 00:53:49;;;;;;;23.10;9.45;;;13.20;46.10;;;;;;9864250;29;20090;-77
2021/04/25 00:58:44;;;;;;;24.13;9.48;;;;;;;;;;9863382;29;20138;-78
2021/04/25 01:03:37;;;;;;;21.98;9.32;;;12.10;46.40;;;;;;9846118;29;20511;-78
2021/04/25 01:08:31;;;;;;;15.52;6.50;;;11.90;46.20;;;;;;9846001;29;20203;-79
2021/04/25 01:13:26;;;;;;;20.25;7.55;;;11.90;47.30;;;;;;9862572;29;20443;-78
2021/04/25 01:18:20;;;;;;;19.63;8.50;;;13.40;47.20;;;;;;9845581;29;20078;-79
2021/04/25 01:23:15;;;;;;;19.30;8.50;;;13.00;48.30;;;;;;9862130;29;20052;-80
2021/04/25 01:28:09;;;;;;;18.13;7.30;;;11.90;47.90;;;;;;9845687;29;20050;-81
2021/04/25 01:33:03;;;;;;;20.30;7.90;;;14.30;48.20;;;;;;9845552;29;20083;-80
2021/04/25 01:37:58;;;;;;;14.23;5.05;;;13.30;46.60;;;;;;9861901;29;20074;-80
2021/04/25 01:42:54;;;;;;;15.95;5.55;;;13.60;46.00;;;;;;9845349;29;20083;-79
2021/04/25 01:47:53;;;;;;;14.48;4.80;;;11.90;45.00;;;;;;9862726;29;20047;-80
2021/04/25 01:52:47;;;;;;;12.35;5.45;;;12.00;46.70;;;;;;9844221;29;20075;-79
2021/04/25 01:57:41;;;;;;;11.00;4.57;;;12.90;45.90;;;;;;9860960;29;20083;-78
2021/04/25 02:02:36;;;;;;;12.35;4.88;;;13.50;46.40;;;;;;9844127;29;20043;-79
2021/04/25 02:07:29;;;;;;;10.02;4.30;;;13.40;45.30;;;;;;9861640;29;20582;-79
2021/04/25 02:12:24;;;;;;;17.65;6.32;;;14.10;46.60;;;;;;9861149;29;20091;-78
2021/04/25 02:17:18;;;;;;;15.38;5.93;;;;;;;;;;9861013;29;20064;-78
2021/04/25 02:22:13;;;;;;;18.55;7.47;;;11.50;47.10;;;;;;9860733;29;20079;-78
2021/04/25 02:27:07;;;;;;;14.98;6.57;;;15.10;49.50;;;;;;9860302;29;20087;-79
2021/04/25 02:32:01;;;;;;;16.05;6.85;;;14.30;48.50;;;;;;9860349;29;20503;-80
2021/04/25 02:36:56;;;;;;;13.10;5.43;;;12.00;48.20;;;;;;9860216;29;20055;-81
2021/04/25 02:41:51;;;;;;;12.15;5.07;;;13.20;48.00;;;;;;9860798;29;20090;-80
2021/04/25 02:46:44;;;;;;;13.90;5.30;;;13.10;49.10;;;;;;9860754;29;20459;-79
2021/04/25 02:51:38;;;;;;;15.65;5.10;;;13.40;49.40;;;;;;9861346;29;20089;-77
2021/04/25 02:56:32;;;;;;;13.40;5.38;;;13.50;48.20;;;;;;9828211;29;20098;-77
2021/04/25 03:01:26;;;;;;;10.40;4.75;;;11.60;47.30;;;;;;9850389;29;20067;-78
2021/04/25 03:06:20;;;;;;;11.88;4.65;;;12.30;47.50;;;;;;9834938;29;20700;-77
2021/04/25 03:11:14;;;;;;;11.95;5.07;;;11.60;47.20;;;;;;9865282;29;20481;-78
2021/04/25 03:16:08;;;;;;;19.60;7.20;;;13.90;49.30;;;;;;9866829;29;20098;-78
2021/04/25 03:21:03;;;;;;;19.35;9.70;;;11.80;48.90;;;;;;9869473;29;20056;-78
2021/04/25 03:25:57;;;;;;;24.90;10.63;;;13.20;51.50;;;;;;9867040;29;20090;-78
2021/04/25 03:30:51;;;;;;;19.80;10.27;;;13.70;51.10;;;;;;9849427;29;20086;-79
2021/04/25 03:35:45;;;;;;;25.20;9.73;;;11.80;51.30;;;;;;9866233;29;20071;-78
2021/04/25 03:40:40;;;;;;;19.02;9.80;;;13.80;51.20;;;;;;9866169;29;20087;-80
2021/04/25 03:45:34;;;;;;;21.33;9.70;;;11.50;50.30;;;;;;9864878;29;20091;-79
2021/04/25 03:50:28;;;;;;;25.52;10.63;;;11.10;50.40;;;;;;9865713;29;20051;-80
2021/04/25 03:55:24;;;;;;;22.48;9.70;;;11.40;50.70;;;;;;9865627;29;20094;-80
2021/04/25 04:00:22;;;;;;;22.97;9.90;;;11.80;51.00;;;;;;9850091;29;20502;-80
2021/04/25 04:05:16;;;;;;;22.95;9.23;;;12.70;52.50;;;;;;9848332;29;20048;-83
2021/04/25 04:10:12;;;;;;;22.02;10.55;;;11.80;51.10;;;;;;9847301;29;20090;-82
2021/04/25 04:15:07;;;;;;;22.42;10.30;;;11.20;50.90;;;;;;9864759;29;20530;-81
2021/04/25 04:20:03;;;;;;;18.25;9.48;;;11.70;51.20;;;;;;9864825;29;20043;-81
2021/04/25 04:24:56;;;;;;;21.33;9.85;;;11.60;52.20;;;;;;9847458;29;20054;-79
2021/04/25 04:29:51;;;;;;;21.05;9.98;;;11.50;52.10;;;;;;9847540;29;20091;-81
2021/04/25 04:34:45;;;;;;;24.95;10.40;;;11.80;51.20;;;;;;9847421;29;20079;-79
2021/04/25 04:39:41;;;;;;;22.00;9.65;;;12.00;52.50;;;;;;9863764;29;20083;-78
2021/04/25 04:44:35;;;;;;;22.67;9.77;;;13.10;52.30;;;;;;9863554;29;20079;-78
2021/04/25 04:49:29;;;;;;;25.05;10.93;;;12.10;52.80;;;;;;9863458;29;20517;-79
2021/04/25 04:54:23;;;;;;;20.33;10.43;;;12.50;52.90;;;;;;9862976;29;20502;-78
2021/04/25 04:59:18;;;;;;;24.23;11.77;;;11.50;51.40;;;;;;9862957;29;20459;-77
2021/04/25 05:04:12;;;;;;;27.98;11.82;;;11.90;51.60;;;;;;9846306;29;20079;-78
2021/04/25 05:09:06;;;;;;;18.92;9.63;;;10.90;51.20;;;;;;9846297;29;20086;-78
2021/04/25 05:14:01;;;;;;;22.38;9.50;;;11.70;52.60;;;;;;9862926;29;20473;-79
2021/04/25 05:18:56;;;;;;;19.00;9.52;;;11.60;51.60;;;;;;9862322;29;20653;-79
2021/04/25 05:23:50;;;;;;;23.02;10.75;;;11.00;52.30;;;;;;9845769;29;20489;-76
2021/04/25 05:28:45;;;;;;;25.38;10.25;;;13.50;52.60;;;;;;9862318;29;20048;-78
2021/04/25 05:33:39;;;;;;;23.40;10.95;;;11.40;51.50;;;;;;9844426;29;20543;-80
2021/04/25 05:38:35;;;;;;;24.33;11.52;;;13.10;52.70;;;;;;9862396;29;20509;-79
2021/04/25 05:43:30;;;;;;;25.48;11.05;;;11.90;52.20;;;;;;9862131;29;20087;-79
2021/04/25 05:48:24;;;;;;;25.77;12.20;;;;;;;;;;9861784;29;20090;-78
2021/04/25 05:53:21;;;;;;;27.27;12.35;;;13.80;52.90;;;;;;9861263;29;20079;-79
2021/04/25 05:58:16;;;;;;;20.13;8.50;;;11.80;51.80;;;;;;9844678;29;20086;-77
2021/04/25 06:03:10;;;;;;;28.15;12.82;;;12.60;52.40;;;;;;9860731;29;20541;-80
2021/04/25 06:08:04;;;;;;;33.70;16.15;;;12.50;51.80;;;;;;9844349;29;20079;-77
2021/04/25 06:12:58;;;;;;;30.98;13.07;;;12.40;51.80;;;;;;9861634;29;20087;-78
2021/04/25 06:17:54;;;;;;;26.40;12.93;;;11.50;51.60;;;;;;9844164;29;20086;-79
2021/04/25 06:22:49;;;;;;;30.88;13.73;;;13.70;52.80;;;;;;9844201;29;20058;-81
2021/04/25 06:27:43;;;;;;;24.50;13.43;;;13.60;51.80;;;;;;9843420;29;20086;-79
2021/04/25 06:32:37;;;;;;;25.85;10.90;;;13.20;51.40;;;;;;9863599;29;20454;-78
2021/04/25 06:37:32;;;;;;;31.20;14.00;;;14.80;53.00;;;;;;9851252;29;20086;-79
2021/04/25 06:42:34;;;;;;;32.25;14.07;;;14.80;52.10;;;;;;9867940;29;20075;-77
2021/04/25 06:47:28;;;;;;;32.45;15.60;;;;;;;;;;9850449;29;20048;-78
2021/04/25 06:52:22;;;;;;;36.05;14.20;;;14.80;51.40;;;;;;9866336;29;20086;-79
2021/04/25 06:57:18;;;;;;;31.75;13.93;;;13.40;48.70;;;;;;9867957;29;20126;-79
2021/04/25 07:02:11;;;;;;;33.58;15.30;;;13.90;50.60;;;;;;9850606;29;20044;-75
2021/04/25 07:07:05;;;;;;;32.58;14.13;;;12.90;48.60;;;;;;9850315;29;20087;-78
2021/04/25 07:11:59;;;;;;;29.33;14.52;;;14.40;49.60;;;;;;9834944;29;20086;-76
2021/04/25 07:16:54;;;;;;;34.75;14.68;;;14.50;49.30;;;;;;9865591;29;20090;-74
2021/04/25 07:21:47;;;;;;;27.38;13.63;;;14.90;49.50;;;;;;9866687;29;20048;-75
2021/04/25 07:26:42;;;;;;;33.20;12.73;;;15.00;49.40;;;;;;9866457;29;20083;-77
2021/04/25 07:31:37;;;;;;;35.10;14.35;;;14.50;47.30;;;;;;9866541;29;20490;-76
2021/04/25 07:36:33;;;;;;;27.15;12.52;;;13.70;46.10;;;;;;9866412;29;20468;-78
2021/04/25 07:41:27;;;;;;;20.75;10.80;;;14.30;45.30;;;;;;9866140;29;20055;-78
2021/04/25 07:46:22;;;;;;;26.42;13.05;;;;;;;;;;9865621;29;20079;-75
2021/04/25 07:51:15;;;;;;;26.30;12.35;;;14.00;46.20;;;;;;9847951;29;20145;-78
2021/04/25 07:56:13;;;;;;;31.02;12.75;;;14.10;45.30;;;;;;9865032;29;20401;-78
2021/04/25 08:01:08;;;;;;;26.63;11.32;;;;;;;;;;9847740;29;20110;-78
2021/04/25 08:06:04;;;;;;;23.98;11.27;;;15.30;44.50;;;;;;9832416;29;20071;-79
2021/04/25 08:11:01;;;;;;;29.48;12.23;;;14.10;44.00;;;;;;9848961;29;20090;-78
2021/04/25 08:15:59;;;;;;;25.55;11.88;;;15.30;43.30;;;;;;9865065;29;20078;-78
2021/04/25 08:20:55;;;;;;;29.35;12.05;;;16.10;45.20;;;;;;9848159;29;20095;-78
2021/04/25 08:25:49;;;;;;;23.15;10.60;;;16.10;44.50;;;;;;9846985;29;20087;-77
2021/04/25 08:30:43;;;;;;;24.90;10.23;;;15.80;42.20;;;;;;9846735;29;20473;-77
2021/04/25 08:35:40;;;;;;;19.40;8.82;;;16.40;40.20;;;;;;9846475;29;20091;-78
2021/04/25 08:40:36;;;;;;;23.63;9.40;;;16.00;41.40;;;;;;9846513;29;20089;-78
2021/04/25 08:45:30;;;;;;;22.88;10.18;;;16.20;41.70;;;;;;9831561;29;20079;-76
2021/04/25 08:50:28;;;;;;;16.42;8.10;;;15.70;40.80;;;;;;9862846;29;20070;-79
2021/04/25 08:55:24;;;;;;;20.55;9.23;;;17.80;40.80;;;;;;9862421;29;20083;-77
2021/04/25 09:00:19;;;;;;;23.73;10.88;;;16.20;40.00;;;;;;9872527;29;20082;-77
2021/04/25 09:05:15;;;;;;;23.48;9.32;;;17.60;40.80;;;;;;9857032;29;20099;-80
2021/04/25 09:10:12;;;;;;;17.00;7.57;;;;;;;;;;9862060;29;20481;-78
2021/04/25 09:15:27;;;;;;;20.90;9.50;;;18.60;39.90;;;;;;9845379;29;20097;-77
2021/04/25 09:20:32;;;;;;;23.13;9.98;;;17.70;40.90;;;;;;9862412;29;20123;-77
2021/04/25 09:25:26;;;;;;;24.40;11.15;;;18.70;39.80;;;;;;9874423;29;20089;-76
2021/04/25 09:30:25;;;;;;;24.63;11.02;;;18.80;40.90;;;;;;9861712;29;20086;-77
2021/04/25 09:35:22;;;;;;;21.98;10.80;;;;;;;;;;9861963;29;20078;-77
2021/04/25 09:40:21;;;;;;;22.42;10.77;;;18.20;40.20;;;;;;9846262;29;20059;-78
2021/04/25 09:45:23;;;;;;;24.92;10.82;;;17.80;40.00;;;;;;9847540;29;20056;-78
2021/04/25 09:50:20;;;;;;;21.65;9.55;;;17.20;39.20;;;;;;9847265;29;20406;-78
2021/04/25 09:55:16;;;;;;;21.80;9.40;;;18.50;40.00;;;;;;9845816;29;20063;-75
2021/04/25 10:00:13;;;;;;;20.55;9.02;;;18.10;39.10;;;;;;9863317;29;20059;-75
2021/04/25 10:05:07;;;;;;;22.30;7.95;;;19.40;41.10;;;;;;9845273;29;20043;-77
2021/04/25 10:10:11;;;;;;;15.55;6.30;;;18.60;40.70;;;;;;9862137;29;20055;-75
2021/04/25 10:15:06;;;;;;;16.65;8.02;;;18.30;38.90;;;;;;9862006;29;20087;-77
2021/04/25 10:20:07;;;;;;;15.80;6.53;;;16.90;37.70;;;;;;9874797;29;20495;-77
2021/04/25 10:25:01;;;;;;;19.33;8.05;;;18.50;38.80;;;;;;9864578;29;20529;-81
2021/04/25 10:30:02;;;;;;;20.17;8.23;;;18.40;40.20;;;;;;9861855;29;20508;-76
2021/04/25 10:35:18;;;;;;;15.30;7.30;;;18.20;40.20;;;;;;9861003;29;20154;-78
2021/04/25 10:40:33;;;;;;;17.15;8.40;;;18.20;40.00;;;;;;9842628;29;20082;-77
2021/04/25 10:45:31;;;;;;;16.67;7.05;;;18.20;40.30;;;;;;9860854;29;20040;-77
2021/04/25 10:53:18;;;;;;;14.23;8.35;;;20.60;43.30;;;;;;10216012;27;20370;-75
2021/04/25 10:58:23;;;;;;;17.13;7.95;;;18.30;39.30;;;;;;10197460;28;20363;-77
2021/04/25 11:03:41;;;;;;;16.70;8.43;;;18.30;39.90;;;;;;10217676;28;20050;-78
2021/04/25 11:08:41;;;;;;;19.33;8.80;;;18.40;40.10;;;;;;10198942;28;20494;-78
2021/04/25 11:13:44;;;;;;;14.52;7.07;;;18.40;40.40;;;;;;10215550;28;20052;-77
2021/04/25 11:18:49;;;;;;;13.43;6.97;;;18.30;40.40;;;;;;10216214;28;20121;-77
2021/04/25 11:23:45;;;;;;;16.65;6.07;;;18.40;40.10;;;;;;10216746;28;20398;-77
2021/04/25 11:28:54;;;;;;;14.35;6.32;;;18.80;39.00;;;;;;10216951;28;20067;-77
2021/04/25 11:33:47;;;;;;;13.32;6.53;;;19.00;38.10;;;;;;10215866;28;20096;-77
2021/04/25 11:38:49;;;;;;;16.27;7.63;;;19.30;37.20;;;;;;10214514;28;20051;-76
2021/04/25 11:43:43;;;;;;;15.70;6.88;;;19.50;36.90;;;;;;10215509;28;20142;-76
2021/04/25 11:48:55;;;;;;;17.35;8.73;;;20.10;36.20;;;;;;10213205;28;20074;-78
2021/04/25 11:53:51;;;;;;;16.15;8.38;;;21.00;34.70;;;;;;10211718;28;20048;-77
2021/04/25 11:58:48;;;;;;;22.17;9.18;;;21.20;34.80;;;;;;10212170;28;20058;-77
2021/04/25 12:03:49;;;;;;;17.50;9.07;;;20.30;34.80;;;;;;10169757;28;20052;-79
2021/04/25 12:08:53;;;;;;;19.17;8.68;;;21.00;31.40;;;;;;10166408;28;20056;-80
2021/04/25 12:13:48;;;;;;;16.20;8.82;;;21.90;29.10;;;;;;10183840;28;20170;-78
2021/04/25 12:18:43;;;;;;;12.82;7.18;;;22.30;29.90;;;;;;10181903;28;20050;-82
2021/04/25 12:23:42;;;;;;;15.00;7.40;;;24.00;27.00;;;;;;10184667;28;20051;-78
2021/04/25 12:28:43;;;;;;;19.42;9.85;;;24.00;27.70;;;;;;10186001;28;20036;-84
2021/04/25 12:33:46;;;;;;;15.93;8.52;;;25.50;28.10;;;;;;10185440;28;20048;-81
2021/04/25 12:38:43;;;;;;;17.98;9.57;;;25.70;28.90;;;;;;10181585;28;20048;-82
2021/04/25 12:43:54;;;;;;;14.15;8.48;;;24.50;27.40;;;;;;10165945;28;20048;-81
2021/04/25 12:48:54;;;;;;;19.92;11.05;;;22.10;28.30;;;;;;10184394;28;20518;-80
2021/04/25 12:54:07;;;;;;;22.88;12.20;;;24.50;28.40;;;;;;10183852;28;20052;-80
2021/04/25 12:59:14;;;;;;;21.08;11.23;;;23.70;30.90;;;;;;10183288;28;20406;-78
2021/04/25 13:04:31;;;;;;;22.98;10.90;;;23.40;31.60;;;;;;10181490;28;20482;-77
2021/04/25 13:09:26;;;;;;;20.30;11.93;;;22.90;31.60;;;;;;10181434;28;20048;-78
2021/04/25 13:14:21;;;;;;;22.05;12.27;;;22.70;32.20;;;;;;10180700;28;20066;-78
2021/04/25 13:19:27;;;;;;;20.50;11.75;;;22.00;33.00;;;;;;10164172;28;20062;-76
2021/04/25 13:24:21;;;;;;;22.63;12.98;;;21.60;33.50;;;;;;10181665;28;20044;-76
2021/04/25 13:29:18;;;;;;;22.30;11.85;;;21.30;34.10;;;;;;10164471;28;20055;-77
2021/04/25 13:34:14;;;;;;;21.48;11.02;;;21.20;34.40;;;;;;10164179;28;20067;-76
2021/04/25 13:39:10;;;;;;;23.40;9.77;;;21.00;34.60;;;;;;10180344;28;20040;-77
2021/04/25 13:44:03;;;;;;;18.13;9.43;;;21.30;34.20;;;;;;10163178;28;20052;-77
2021/04/25 13:48:57;;;;;;;15.02;8.35;;;21.60;33.50;;;;;;10179400;28;20063;-76
2021/04/25 13:53:52;;;;;;;17.10;8.77;;;21.90;32.70;;;;;;10179914;28;20059;-77
2021/04/25 13:58:46;;;;;;;16.40;9.07;;;21.70;32.30;;;;;;10180629;28;20043;-78
2021/04/25 14:03:41;;;;;;;22.80;9.07;;;21.20;33.20;;;;;;10181048;28;20422;-76
2021/04/25 14:08:37;;;;;;;14.88;7.82;;;21.30;33.60;;;;;;10180824;28;20094;-78
2021/04/25 14:13:32;;;;;;;17.23;8.57;;;19.70;34.20;;;;;;10180532;28;20051;-78
2021/04/25 14:18:25;;;;;;;11.05;7.07;;;19.80;33.10;;;;;;10179076;28;20285;-78
2021/04/25 14:23:19;;;;;;;12.65;6.68;;;21.50;33.70;;;;;;10178445;28;20125;-77
2021/04/25 14:28:13;;;;;;;18.40;7.22;;;20.80;32.30;;;;;;10178524;28;20046;-78
2021/04/25 14:33:07;;;;;;;13.07;7.38;;;20.90;33.50;;;;;;10179034;28;20469;-78
2021/04/25 14:38:04;;;;;;;12.60;6.07;;;21.00;32.40;;;;;;10180706;28;20497;-76
2021/04/25 14:42:58;;;;;;;12.02;7.60;;;19.20;31.60;;;;;;10179419;28;20341;-76
2021/04/25 14:47:53;;;;;;;15.25;7.60;;;21.10;34.10;;;;;;10178512;28;20048;-77
2021/04/25 14:52:48;;;;;;;18.70;7.35;;;20.00;33.70;;;;;;10178172;28;20056;-78
2021/04/25 14:57:42;;;;;;;13.88;7.25;;;;;;;;;;10178714;28;20044;-76
2021/04/25 15:02:36;;;;;;;13.45;6.88;;;19.30;32.60;;;;;;10178413;28;20067;-76
2021/04/25 15:07:32;;;;;;;13.40;7.93;;;21.90;35.30;;;;;;10180385;28;20475;-76
2021/04/25 15:12:28;;;;;;;13.15;7.70;;;21.20;34.20;;;;;;10179992;28;20048;-75
2021/04/25 15:17:22;;;;;;;12.15;7.28;;;18.60;34.00;;;;;;10177893;28;20043;-76
2021/04/25 15:22:16;;;;;;;11.55;6.88;;;18.10;33.80;;;;;;10178997;28;20059;-75
2021/04/25 15:27:12;;;;;;;13.40;7.00;;;18.40;32.90;;;;;;10177927;28;20048;-75
2021/04/25 15:32:09;;;;;;;13.82;6.55;;;17.80;33.80;;;;;;10177443;28;20044;-76
2021/04/25 15:37:04;;;;;;;14.90;6.50;;;17.70;32.80;;;;;;10180936;28;20154;-75
2021/04/25 15:41:57;;;;;;;12.10;5.95;;;18.40;33.20;;;;;;10186767;28;20048;-77
2021/04/25 15:46:53;;;;;;;14.23;5.78;;;18.20;32.70;;;;;;10185445;28;20052;-76
2021/04/25 15:51:47;;;;;;;10.68;5.25;;;18.50;33.10;;;;;;10186871;28;20108;-76
2021/04/25 15:56:44;;;;;;;11.55;5.18;;;;;;;;;;10184665;28;20052;-76
2021/04/25 16:01:38;;;;;;;10.23;5.10;;;18.70;33.40;;;;;;10185878;28;20040;-76
2021/04/25 16:06:32;;;;;;;8.68;4.43;;;17.80;32.40;;;;;;10185538;28;20074;-75
2021/04/25 16:11:27;;;;;;;12.32;5.40;;;18.20;33.40;;;;;;10165199;28;20056;-75
2021/04/25 16:16:20;;;;;;;13.32;5.65;;;18.20;33.20;;;;;;10183566;28;20048;-78
2021/04/25 16:21:14;;;;;;;10.73;5.60;;;18.00;33.50;;;;;;10186085;28;20122;-76
2021/04/25 16:26:08;;;;;;;9.75;5.55;;;17.80;33.20;;;;;;10186221;28;20573;-76
2021/04/25 16:31:04;;;;;;;8.70;4.57;;;17.80;33.20;;;;;;10167280;28;20047;-76
2021/04/25 16:35:58;;;;;;;11.35;4.28;;;17.60;33.20;;;;;;10185396;28;20178;-75
2021/04/25 16:40:53;;;;;;;11.32;4.22;;;17.40;33.40;;;;;;10186285;28;20094;-77
2021/04/25 16:45:47;;;;;;;9.48;4.18;;;17.40;33.20;;;;;;10185689;28;20048;-76
2021/04/25 16:50:42;;;;;;;11.68;4.97;;;18.20;34.20;;;;;;10183158;28;20430;-76
2021/04/25 16:55:37;;;;;;;9.98;3.83;;;17.20;32.80;;;;;;10183373;28;20059;-77
2021/04/25 17:00:31;;;;;;;7.13;3.55;;;17.10;32.70;;;;;;10184647;28;20081;-76
2021/04/25 17:05:24;;;;;;;6.50;3.67;;;17.00;32.50;;;;;;10167367;28;20097;-76
2021/04/25 17:10:20;;;;;;;8.77;4.18;;;16.90;32.40;;;;;;10185164;28;20071;-77
2021/04/25 17:15:18;;;;;;;8.43;2.97;;;17.10;32.70;;;;;;10184755;28;20044;-76
2021/04/25 17:20:15;;;;;;;7.75;3.40;;;16.80;32.30;;;;;;10167172;28;20449;-77
2021/04/25 17:25:11;;;;;;;8.50;3.15;;;16.70;31.80;;;;;;10185670;28;20048;-78
2021/04/25 17:30:10;;;;;;;7.55;4.05;;;16.70;31.80;;;;;;10181607;28;20040;-77
2021/04/25 17:35:08;;;;;;;7.75;2.95;;;16.60;31.90;;;;;;10183438;28;20095;-76
2021/04/25 17:40:02;;;;;;;7.90;2.90;;;16.60;31.60;;;;;;10185391;28;20044;-76
2021/04/25 17:44:56;;;;;;;7.18;3.00;;;16.40;31.60;;;;;;10181084;28;20486;-76
2021/04/25 17:49:50;;;;;;;6.43;3.08;;;16.40;31.80;;;;;;10181591;28;20060;-78
2021/04/25 17:54:44;;;;;;;8.90;3.30;;;16.40;32.00;;;;;;10180053;28;20044;-77
2021/04/25 17:59:37;;;;;;;6.60;3.25;;;16.30;32.40;;;;;;10179233;28;20040;-77
2021/04/25 18:04:32;;;;;;;8.60;3.47;;;16.20;31.80;;;;;;10179789;28;20051;-77
2021/04/25 18:09:27;;;;;;;4.72;2.83;;;16.10;32.00;;;;;;10180018;28;20048;-78
2021/04/25 18:14:21;;;;;;;7.70;3.35;;;;;;;;;;10180689;28;20444;-76
2021/04/25 18:19:14;;;;;;;9.20;3.58;;;14.50;32.40;;;;;;10179647;28;20047;-78
2021/04/25 18:24:09;;;;;;;6.80;3.35;;;16.10;32.20;;;;;;10181029;28;20126;-79
2021/04/25 18:29:04;;;;;;;9.27;3.50;;;15.80;32.20;;;;;;10179118;28;20130;-78
2021/04/25 18:33:58;;;;;;;8.88;3.30;;;15.60;32.40;;;;;;10171360;28;20061;-79
2021/04/25 18:38:53;;;;;;;5.15;2.85;;;15.50;32.50;;;;;;10165404;28;20118;-77
2021/04/25 18:43:50;;;;;;;7.07;3.33;;;15.50;32.60;;;;;;10163316;28;20052;-76
2021/04/25 18:48:50;;;;;;;9.13;3.90;;;15.40;32.60;;;;;;10141028;28;20044;-78
2021/04/25 18:53:45;;;;;;;7.78;3.20;;;15.40;33.30;;;;;;10148022;28;20048;-76
2021/04/25 18:58:40;;;;;;;6.68;3.08;;;15.20;33.00;;;;;;10160893;28;20036;-74
2021/04/25 19:03:34;;;;;;;5.75;3.17;;;;;;;;;;10156361;28;20044;-75
2021/04/25 19:08:30;;;;;;;10.93;3.25;;;14.10;34.00;;;;;;10151504;28;20047;-75
2021/04/25 19:13:27;;;;;;;3.95;2.80;;;15.50;33.60;;;;;;10165060;28;20071;-76
2021/04/25 19:18:21;;;;;;;8.15;3.40;;;16.80;34.30;;;;;;10169714;28;20072;-76
2021/04/25 19:23:15;;;;;;;7.05;3.10;;;13.90;32.90;;;;;;10151730;28;20406;-77
2021/04/25 19:28:10;;;;;;;7.18;3.60;;;14.30;33.10;;;;;;10182845;28;20048;-77
2021/04/25 19:33:04;;;;;;;8.15;3.40;;;14.70;33.90;;;;;;10172236;28;20050;-75
2021/04/25 19:37:59;;;;;;;8.27;3.38;;;14.70;34.10;;;;;;10186600;28;20055;-76
2021/04/25 19:42:53;;;;;;;6.20;3.17;;;14.70;34.00;;;;;;10170310;28;20052;-77
2021/04/25 19:47:47;;;;;;;10.60;3.65;;;14.70;34.10;;;;;;10183053;28;20044;-77
2021/04/25 19:52:41;;;;;;;6.50;3.20;;;14.60;34.30;;;;;;10181779;28;20048;-76
2021/04/25 19:57:35;;;;;;;7.32;2.95;;;15.90;40.80;;;;;;10166052;28;20438;-76
2021/04/25 20:02:29;;;;;;;7.10;3.17;;;15.30;35.80;;;;;;10186819;28;20044;-77
2021/04/25 20:07:24;;;;;;;7.38;3.30;;;;;;;;;;10186298;28;20101;-79
2021/04/25 20:12:22;;;;;;;7.22;4.45;;;14.70;34.90;;;;;;10186930;28;20059;-80
2021/04/25 20:17:17;;;;;;;8.90;3.50;;;14.60;34.90;;;;;;10169791;28;20402;-79
2021/04/25 20:22:11;;;;;;;6.00;3.45;;;14.40;35.10;;;;;;10186477;28;20090;-78
2021/04/25 20:27:07;;;;;;;7.50;3.60;;;14.20;35.20;;;;;;10170349;28;20051;-78
2021/04/25 20:32:03;;;;;;;6.75;3.22;;;14.10;35.20;;;;;;10184147;28;20446;-79
2021/04/25 20:36:57;;;;;;;7.20;3.17;;;14.00;35.10;;;;;;10185705;28;20052;-78
2021/04/25 20:41:52;;;;;;;7.57;3.33;;;14.00;35.10;;;;;;10184963;28;20044;-75
2021/04/25 20:46:47;;;;;;;9.70;3.58;;;;;;;;;;10185635;28;20470;-75
2021/04/25 20:51:41;;;;;;;8.95;3.13;;;13.80;35.10;;;;;;10184377;28;20084;-77
2021/04/25 20:56:35;;;;;;;4.22;3.08;;;13.70;35.00;;;;;;10167673;28;20047;-78
2021/04/25 21:01:30;;;;;;;8.98;2.95;;;13.60;35.00;;;;;;10168021;28;20044;-75
2021/04/25 21:06:25;;;;;;;4.90;2.50;;;13.50;34.80;;;;;;10183291;28;20052;-75
2021/04/25 21:11:19;;;;;;;5.95;2.65;;;13.40;34.80;;;;;;10184393;28;20032;-77
2021/04/25 21:16:14;;;;;;;5.05;2.75;;;13.30;34.70;;;;;;10185316;28;20040;-77
2021/04/25 21:21:08;;;;;;;6.72;2.50;;;13.30;35.20;;;;;;10166006;28;20058;-79
2021/04/25 21:26:04;;;;;;;6.50;3.10;;;;;;;;;;10181294;28;20040;-79
2021/04/25 21:30:58;;;;;;;3.80;2.10;;;;;;;;;;10181438;28;20402;-78
2021/04/25 21:35:51;;;;;;;5.18;2.13;;;15.30;36.00;;;;;;10181822;28;20530;-78
2021/04/25 21:40:45;;;;;;;4.75;1.92;;;13.20;33.80;;;;;;10182435;28;20088;-78
2021/04/25 21:45:40;;;;;;;2.63;1.67;;;13.20;33.70;;;;;;10165374;28;20395;-77
2021/04/25 21:50:35;;;;;;;3.10;2.08;;;13.10;33.40;;;;;;10182654;28;20052;-79
2021/04/25 21:55:32;;;;;;;4.10;1.80;;;13.20;33.50;;;;;;10181396;28;20119;-75
2021/04/25 22:00:37;;;;;;;5.25;1.90;;;13.10;33.10;;;;;;10180900;28;20054;-78
2021/04/25 22:05:32;;;;;;;4.20;1.90;;;13.00;33.20;;;;;;10180036;28;20501;-79
2021/04/25 22:10:27;;;;;;;7.63;2.15;;;12.90;33.50;;;;;;10181072;28;20307;-76
2021/04/25 22:15:21;;;;;;;3.75;1.92;;;12.70;34.60;;;;;;10182517;28;20052;-77
2021/04/25 22:20:17;;;;;;;6.13;2.08;;;11.50;33.30;;;;;;10180981;28;20075;-76
2021/04/25 22:25:15;;;;;;;3.50;1.80;;;14.40;34.20;;;;;;10182293;28;20048;-77
2021/04/25 22:30:12;;;;;;;8.70;2.28;;;14.20;34.20;;;;;;10181760;28;20051;-77
2021/04/25 22:35:10;;;;;;;4.72;1.98;;;12.70;32.60;;;;;;10181148;28;20383;-78
2021/04/25 22:40:06;;;;;;;4.27;1.97;;;12.70;32.50;;;;;;10181895;28;20048;-78
2021/04/25 22:45:02;;;;;;;4.68;1.92;;;12.70;32.50;;;;;;10181867;28;20210;-76
2021/04/25 22:49:56;;;;;;;4.18;2.15;;;12.70;32.60;;;;;;10180955;28;20055;-80
2021/04/25 22:54:50;;;;;;;4.07;1.55;;;13.30;32.90;;;;;;10180916;28;20127;-79
2021/04/25 22:59:44;;;;;;;3.45;2.03;;;12.60;32.70;;;;;;10164311;28;20051;-84
2021/04/25 23:04:42;;;;;;;4.35;1.75;;;12.70;32.70;;;;;;10146947;28;20044;-85
2021/04/25 23:09:37;;;;;;;6.88;1.90;;;12.50;32.60;;;;;;10178410;28;20105;-88
2021/04/25 23:14:32;;;;;;;3.15;1.77;;;12.50;32.60;;;;;;10161200;28;20063;-82
2021/04/25 23:19:26;;;;;;;6.80;1.88;;;12.70;32.80;;;;;;10144403;28;20131;-83
2021/04/25 23:24:26;;;;;;;2.55;1.52;;;12.80;33.80;;;;;;10162104;28;20097;-78
2021/04/25 23:29:21;;;;;;;3.80;1.80;;;12.80;32.80;;;;;;10177714;28;20058;-77
2021/04/25 23:34:15;;;;;;;5.28;1.73;;;12.70;32.80;;;;;;10178310;28;20044;-78
2021/04/25 23:39:11;;;;;;;6.25;1.58;;;13.10;34.80;;;;;;10162525;28;20380;-78
2021/04/25 23:44:08;;;;;;;6.65;1.65;;;11.50;33.20;;;;;;10177937;28;20657;-80
2021/04/25 23:49:01;;;;;;;4.43;1.80;;;12.70;32.60;;;;;;10179520;28;20056;-78
2021/04/25 23:53:55;;;;;;;3.25;1.60;;;12.70;33.50;;;;;;10178100;28;20113;-79
2021/04/25 23:58:50;;;;;;;3.35;1.80;;;12.70;32.90;;;;;;10181886;28;20170;-78
